Accueil
METAR-TAF:

METAR-TAF

Aéroports :

Aéroport international Maiquetía - Simón Bolívar

Caracas, Venezuela

latitude: 10-36N, longitude: 066-59W, altitude: 43 m

Observation

Le bulletin a été fait il y a 15 minutes, à 07:02 UTC
Vent 8 kt de est
Température
Pression 1013 hPa

METAR: SVMI 210702Z AUTO 08008KT NCD -40/// Q1013

Heure: 03:17 (07:17 UTC)

Prévision

Le bulletin a été fait il y a 3 heures et 17 minutes, à 04:00 UTC
Prévision valable du 21 à 06 UTC au 22 à 06 UTC
Vent 2 kt de est/nord-est
Visibilité 10 km ou plus
pas de nuages en-dessous de 1500 mètres et pas de cumulonimbus.
Temporairement
du 21 à 06 UTC au 21 à 10 UTC
Vent 6 kt de est
Visibilité 10 km ou plus
Nuages épars à une hauteur de 1600 ft
Nuages épars à une hauteur de 10000 ft
Nuages épars à une hauteur de 1600 ft

TAF: SVMI 210400Z 2106/2206 07002KT 9999 CAVOK TX26/18Z TN24/08Z TEMPO 2106/2110 08007KT 99999 SCT016 SCT100 08006KT 9999 SCT016

Observations et prévisions météorologiques de plus de 4000 aéroports (messages METAR et TAF).

Les stations disponibles sont représentées par des disques jaunes et rouges sur la carte.

Passer la souris dessus pour voir le nom de la station.

Cliquer dessus pour voir les observations et prévisions météorologiques.

Pour changer de carte: cliquez sur les boutons verts avec une croix noire pour zoomer, sur le bouton vert avec un tiret pour effectuer un zoom arrière, ou sur les flèches vertes pour les cartes adjacentes.


METAR-TAF: